Haines, AK (99827)

3:27 PM AKDT on September 01, 2015 (GMT -0800)
Letnikof Cove | | Change Station
CLOSE
Current Station
Personal Weather Station
Location: Haines, AK
Elevation: 230 ft
Nearby Weather Stations

Elev 230 ft 59.17 °N, 135.39 °W | Updated 7 minutes ago

Overcast
Overcast
56.8 °F
Feels Like 56.8 °F
N
6.0
Wind Variable Wind from North
Gusts 8.7 mph

Today
High -- | Low -- °F
--% Chance of Precip.
Yesterday
High -- | Low -- °F
Precip. -- in
5:58 AM 8:03 PM
Waning Gibbous, 85% visible
Pressure 29.78 in
Visibility 10.0 miles
Clouds Overcast 8500 ft
Dew Point 35 °F
Humidity 44%
Rainfall 0.00 in
Snow Depth Not available.
UV 2.0 out of 12
Pollen Not available.
Air Quality Not available.
Flu Activity Not available.
METAR PAHN 012254Z AUTO 30013G19KT 10SM OVC085 14/01 A2977 RMK AO2 SLP082 T01440011 TSNO
Pressure 29.78 in
Visibility 10.0 miles
Clouds Overcast 8500 ft
Dew Point 35 °F
Humidity 44%
Rainfall 0.00 in
Snow Depth Not available.
UV 2.0 out of 12
Pollen Not available.
Air Quality Not available.
Flu Activity Not available.
METAR PAHN 012254Z AUTO 30013G19KT 10SM OVC085 14/01 A2977 RMK AO2 SLP082 T01440011 TSNO

10-Day Weather Forecast

×

Almanac

Astronomy

Sep. 01, 2015 Rise Set
Actual Time
Civil Twilight
Nautical Twilight
Astronomical Twilight
Moon
Length of Visible Light
Length of Day
Tomorrow will be .
, % of the Moon is Illuminated

Today's Extremes

State Highs State Lows

Community

WunderPhotos

Upload Photos

1,851,640 photos uploaded!

WunderBlogs® & News

Nearby

Air Quality

  Air Quality AQ Index Pollutant
Not available.

Snow Depth

Station Depth Elevation

Earthquake Activity

City Distance Mag. Time & Date
Minimum magnitude displayed is 2.5.

Coastal Water Temperatures

Place Temperature

Stations

Nearby Weather Stations

Station Location Temp. Windchill Dew Point Humidity Wind Precip. Elev Updated Type